createdAt,value
2022-08-25T00:01:58.425Z,100849.25
2022-08-25T00:06:00.567Z,100848.63
2022-08-25T00:10:03.187Z,100845.16
2022-08-25T00:14:09.774Z,100847.94
2022-08-25T00:18:19.809Z,100848.63
2022-08-25T00:22:22.667Z,100840.97
2022-08-25T00:26:26.486Z,100837.63
2022-08-25T00:30:28.557Z,100826.84
2022-08-25T00:34:37.579Z,100822.44
2022-08-25T00:38:42.276Z,100819.47
2022-08-25T00:42:44.685Z,100819.25
2022-08-25T00:46:50.643Z,100814.38
2022-08-25T00:50:52.830Z,100814.41
2022-08-25T00:55:10.122Z,100814.56
2022-08-25T00:59:13.633Z,100815.34
2022-08-25T01:03:20.312Z,100805.69
2022-08-25T01:07:24.328Z,100803.88
2022-08-25T01:11:28.227Z,100810.09
2022-08-25T01:15:31.069Z,100796.03
2022-08-25T01:19:33.682Z,100801.53
2022-08-25T01:23:35.835Z,100799.59
2022-08-25T01:27:37.865Z,100796.25
2022-08-25T01:31:42.281Z,100805.94
2022-08-25T01:35:45.445Z,100813.78
2022-08-25T01:39:48.295Z,100811.50
2022-08-25T01:43:50.398Z,100814.22
2022-08-25T01:47:52.825Z,100819.75
2022-08-25T01:52:22.598Z,100818.41
2022-08-25T01:56:25.084Z,100818.06
2022-08-25T02:00:27.204Z,100813.75
2022-08-25T02:04:33.141Z,100814.28
2022-08-25T02:08:36.695Z,100808.94
2022-08-25T02:12:39.643Z,100817.91
2022-08-25T02:16:45.713Z,100807.03
2022-08-25T02:20:48.967Z,100808.84
2022-08-25T02:24:51.322Z,100808.84
2022-08-25T02:28:54.450Z,100819.00
2022-08-25T02:32:56.574Z,100820.47
2022-08-25T02:36:58.803Z,100827.44
2022-08-25T02:41:09.376Z,100814.88
2022-08-25T02:45:11.739Z,100817.88
2022-08-25T02:49:13.937Z,100822.44
2022-08-25T02:53:16.262Z,100831.88
2022-08-25T02:57:18.436Z,100840.78
2022-08-25T03:01:22.062Z,100850.69
2022-08-25T03:05:31.998Z,100851.59
2022-08-25T03:09:34.487Z,100845.59
2022-08-25T03:13:41.118Z,100845.75
2022-08-25T03:17:47.674Z,100836.91
2022-08-25T03:21:56.098Z,100834.22
2022-08-25T03:26:36.949Z,100832.38
2022-08-25T03:30:39.211Z,100831.84
2022-08-25T03:34:41.724Z,100838.50
2022-08-25T03:38:43.787Z,100844.66
2022-08-25T03:42:46.763Z,100831.09
2022-08-25T03:46:51.757Z,100843.28
2022-08-25T03:50:54.901Z,100842.25
2022-08-25T03:54:56.977Z,100840.41
2022-08-25T03:59:00.690Z,100837.63
2022-08-25T04:03:02.759Z,100833.47
2022-08-25T04:07:05.511Z,100833.47
2022-08-25T04:11:15.590Z,100826.31
2022-08-25T04:15:18.902Z,100826.03
2022-08-25T04:19:21.636Z,100818.03
2022-08-25T04:23:24.108Z,100817.88
2022-08-25T04:27:26.375Z,100818.63
2022-08-25T04:31:30.053Z,100804.63
2022-08-25T04:35:32.438Z,100798.97
2022-08-25T04:39:34.869Z,100799.88
2022-08-25T04:43:38.585Z,100795.00
2022-08-25T04:47:41.365Z,100799.22
2022-08-25T04:51:43.575Z,100794.41
2022-08-25T04:55:48.525Z,100799.94
2022-08-25T04:59:51.047Z,100784.09
2022-08-25T05:03:56.645Z,100778.47
2022-08-25T05:07:58.741Z,100771.13
2022-08-25T05:12:02.271Z,100777.38
2022-08-25T05:16:05.903Z,100766.28
2022-08-25T05:20:12.235Z,100769.97
2022-08-25T05:24:14.230Z,100772.31
2022-08-25T05:28:17.312Z,100770.84
2022-08-25T05:32:19.326Z,100768.31
2022-08-25T05:36:22.858Z,100765.00
2022-08-25T05:40:25.648Z,100773.19
2022-08-25T05:44:28.075Z,100776.03
2022-08-25T05:48:30.179Z,100767.66
2022-08-25T05:52:33.056Z,100773.19
2022-08-25T05:56:35.413Z,100789.50
2022-08-25T06:00:39.485Z,100809.59
2022-08-25T06:04:41.720Z,100794.84
2022-08-25T06:08:45.201Z,100804.09
2022-08-25T06:12:47.702Z,100827.69
2022-08-25T06:16:52.147Z,100841.38
2022-08-25T06:20:54.197Z,100862.56
2022-08-25T06:24:56.516Z,100869.78
2022-08-25T06:28:58.675Z,100878.97
2022-08-25T06:33:01.118Z,100889.03
2022-08-25T06:37:06.358Z,100886.09
2022-08-25T06:41:10.983Z,100901.91
2022-08-25T06:45:13.238Z,100900.16
2022-08-25T06:49:17.573Z,100895.59
2022-08-25T06:53:19.618Z,100914.22
2022-08-25T06:57:22.280Z,100912.91
2022-08-25T07:01:27.378Z,100912.44
2022-08-25T07:05:45.195Z,100912.47
2022-08-25T07:09:47.586Z,100914.34
2022-08-25T07:13:50.771Z,100912.00
2022-08-25T07:17:52.799Z,100920.91
2022-08-25T07:21:55.085Z,100918.50
2022-08-25T07:25:57.690Z,100927.50
2022-08-25T07:30:00.093Z,100937.53
2022-08-25T07:34:22.084Z,100933.47
2022-08-25T07:38:24.458Z,100944.47
2022-08-25T07:42:27.880Z,100941.09
2022-08-25T07:46:30.446Z,100939.34
2022-08-25T07:50:34.051Z,100945.19
2022-08-25T07:54:38.081Z,100946.09
2022-08-25T07:58:41.780Z,100949.19
2022-08-25T08:02:44.350Z,100946.03
2022-08-25T08:06:46.744Z,100940.13
2022-08-25T08:11:05.553Z,100944.13
2022-08-25T08:15:10.573Z,100946.03
2022-08-25T08:19:13.558Z,100936.31
2022-08-25T08:23:17.403Z,100956.38
2022-08-25T08:27:19.746Z,100957.09
2022-08-25T08:31:27.672Z,100945.66
2022-08-25T08:35:30.030Z,100950.00
2022-08-25T08:39:32.263Z,100955.91
2022-08-25T08:43:37.189Z,100951.66
2022-08-25T08:48:03.445Z,100952.75
2022-08-25T08:52:11.784Z,100951.81
2022-08-25T08:56:19.762Z,100955.00
2022-08-25T09:00:22.131Z,100952.06
2022-08-25T09:04:34.499Z,100948.03
2022-08-25T09:08:44.654Z,100940.22
2022-08-25T09:13:12.006Z,100939.59
2022-08-25T09:17:24.452Z,100941.38
2022-08-25T09:21:40.286Z,100942.66
2022-08-25T09:25:56.999Z,100940.59
2022-08-25T09:30:32.788Z,100934.72
2022-08-25T09:34:36.121Z,100922.69
2022-08-25T09:38:38.965Z,100924.34
2022-08-25T09:42:58.098Z,100916.41
2022-08-25T09:47:02.097Z,100915.78
2022-08-25T09:51:42.471Z,100912.91
2022-08-25T09:55:59.943Z,100916.31
2022-08-25T10:00:10.105Z,100900.47
2022-08-25T10:04:18.955Z,100897.41
2022-08-25T10:08:35.938Z,100901.91
2022-08-25T10:12:42.341Z,100888.81
2022-08-25T10:16:47.309Z,100895.28
2022-08-25T10:21:08.901Z,100887.44
2022-08-25T10:25:16.909Z,100878.75
2022-08-25T10:29:46.491Z,100881.38
2022-08-25T10:34:06.388Z,100885.03
2022-08-25T10:38:23.890Z,100882.63
2022-08-25T10:43:00.688Z,100878.22
2022-08-25T10:47:34.843Z,100876.22
2022-08-25T10:51:46.840Z,100861.75
2022-08-25T10:56:21.365Z,100865.25
2022-08-25T11:00:47.703Z,100853.44
2022-08-25T11:04:55.999Z,100848.00
2022-08-25T11:09:04.412Z,100860.06
2022-08-25T11:13:46.650Z,100852.34
2022-08-25T11:17:56.050Z,100840.13
2022-08-25T11:22:36.229Z,100842.34
2022-08-25T11:26:59.805Z,100839.63
2022-08-25T11:31:03.453Z,100830.06
2022-08-25T11:35:14.953Z,100826.69
2022-08-25T11:39:24.584Z,100830.69
2022-08-25T11:44:03.986Z,100829.94
2022-08-25T11:48:51.635Z,100824.50
2022-08-25T11:53:03.119Z,100822.81
2022-08-25T11:57:18.519Z,100827.09
2022-08-25T12:01:39.258Z,100823.63
2022-08-25T12:05:42.499Z,100825.25
2022-08-25T12:09:50.586Z,100822.94
2022-08-25T12:13:52.692Z,100821.41
2022-08-25T12:18:09.754Z,100824.22
2022-08-25T12:22:13.659Z,100819.78
2022-08-25T12:26:15.893Z,100819.66
2022-08-25T12:30:46.437Z,100816.94
2022-08-25T12:35:02.907Z,100819.28
2022-08-25T12:39:24.611Z,100814.09
2022-08-25T12:43:37.804Z,100803.13
2022-08-25T12:47:44.756Z,100805.44
2022-08-25T12:51:59.251Z,100796.06
2022-08-25T12:56:28.602Z,100805.50
2022-08-25T13:01:32.871Z,100799.72
2022-08-25T13:06:08.926Z,100794.03
2022-08-25T13:10:13.846Z,100794.03
2022-08-25T13:14:26.769Z,100793.88
2022-08-25T13:18:32.718Z,100791.38
2022-08-25T13:22:36.019Z,100791.38
2022-08-25T13:26:48.418Z,100789.28
2022-08-25T13:31:28.371Z,100777.22
2022-08-25T13:35:33.129Z,100791.69
2022-08-25T13:39:55.388Z,100788.16
2022-08-25T13:43:59.786Z,100783.22
2022-08-25T13:48:03.782Z,100774.56
2022-08-25T13:52:19.252Z,100776.28
2022-08-25T13:56:40.685Z,100779.44
2022-08-25T14:01:23.469Z,100772.13
2022-08-25T14:05:36.116Z,100774.91
2022-08-25T14:09:52.145Z,100768.31
2022-08-25T14:14:14.582Z,100764.38
2022-08-25T14:18:26.759Z,100760.25
2022-08-25T14:22:29.607Z,100759.06
2022-08-25T14:26:31.848Z,100756.50
2022-08-25T14:30:43.448Z,100749.56
2022-08-25T14:34:48.327Z,100747.97
2022-08-25T14:38:54.538Z,100752.06
2022-08-25T14:42:56.867Z,100748.28
2022-08-25T14:47:02.055Z,100761.13
2022-08-25T14:51:07.094Z,100752.75
2022-08-25T14:55:10.707Z,100751.22
2022-08-25T14:59:12.951Z,100753.84
2022-08-25T15:03:19.292Z,100755.59
2022-08-25T15:07:41.311Z,100756.50
2022-08-25T15:11:50.556Z,100760.13
2022-08-25T15:15:53.537Z,100755.53
2022-08-25T15:19:55.962Z,100765.94
2022-08-25T15:24:00.486Z,100760.91
2022-08-25T15:28:07.466Z,100754.38
2022-08-25T15:32:12.687Z,100756.16
2022-08-25T15:36:30.665Z,100749.41
2022-08-25T15:40:34.545Z,100750.31
2022-08-25T15:44:37.137Z,100739.56
2022-08-25T15:48:41.515Z,100745.03
2022-08-25T15:52:48.618Z,100742.19
2022-08-25T15:56:51.775Z,100742.50
2022-08-25T16:00:56.244Z,100742.34
2022-08-25T16:04:58.834Z,100745.91
2022-08-25T16:09:01.640Z,100743.50
2022-08-25T16:13:04.965Z,100743.41
2022-08-25T16:17:07.951Z,100752.75
2022-08-25T16:21:16.847Z,100752.78
2022-08-25T16:25:19.365Z,100741.09
2022-08-25T16:29:21.987Z,100752.91
2022-08-25T16:33:24.666Z,100744.44
2022-08-25T16:37:28.083Z,100743.97
2022-08-25T16:41:34.641Z,100741.47
2022-08-25T16:45:38.622Z,100746.38
2022-08-25T16:49:42.425Z,100748.34
2022-08-25T16:54:05.816Z,100751.09
2022-08-25T16:58:13.631Z,100758.19
2022-08-25T17:02:16.102Z,100754.09
2022-08-25T17:06:21.492Z,100750.50
2022-08-25T17:10:23.541Z,100764.13
2022-08-25T17:14:29.016Z,100766.03
2022-08-25T17:18:31.495Z,100751.00
2022-08-25T17:22:33.756Z,100754.78
2022-08-25T17:26:39.724Z,100763.03
2022-08-25T17:30:43.727Z,100756.03
2022-08-25T17:34:46.327Z,100765.13
2022-08-25T17:38:48.698Z,100769.66
2022-08-25T17:42:51.421Z,100767.66
2022-08-25T17:46:54.566Z,100762.38
2022-08-25T17:51:00.415Z,100773.38
2022-08-25T17:55:02.846Z,100780.50
2022-08-25T17:59:05.606Z,100783.25
2022-08-25T18:03:08.866Z,100793.00
2022-08-25T18:07:12.996Z,100795.03
2022-08-25T18:11:15.405Z,100788.16
2022-08-25T18:15:20.948Z,100792.88
2022-08-25T18:19:23.157Z,100795.00
2022-08-25T18:23:25.322Z,100789.25
2022-08-25T18:27:28.817Z,100790.91
2022-08-25T18:31:31.889Z,100784.50
2022-08-25T18:35:34.711Z,100781.78
2022-08-25T18:39:55.594Z,100776.97
2022-08-25T18:43:57.828Z,100790.31
2022-08-25T18:48:00.516Z,100792.28
2022-08-25T18:52:04.876Z,100784.09
2022-08-25T18:56:09.325Z,100791.47
2022-08-25T19:00:13.423Z,100790.66
2022-08-25T19:04:15.585Z,100792.81
2022-08-25T19:08:21.827Z,100791.13
2022-08-25T19:12:24.074Z,100782.75
2022-08-25T19:16:38.832Z,100791.41
2022-08-25T19:20:42.788Z,100789.22
2022-08-25T19:24:45.878Z,100795.88
2022-08-25T19:28:49.344Z,100784.00
2022-08-25T19:32:52.795Z,100784.16
2022-08-25T19:36:56.174Z,100784.94
2022-08-25T19:40:59.863Z,100786.06
2022-08-25T19:45:02.105Z,100783.19
2022-08-25T19:49:17.450Z,100780.59
2022-08-25T19:53:19.786Z,100770.81
2022-08-25T19:57:28.413Z,100772.59
2022-08-25T20:01:47.575Z,100768.81
2022-08-25T20:05:52.046Z,100769.09
2022-08-25T20:09:55.678Z,100764.69
2022-08-25T20:14:03.509Z,100770.94
2022-08-25T20:18:06.805Z,100767.50
2022-08-25T20:22:11.255Z,100759.25
2022-08-25T20:26:19.675Z,100758.44
2022-08-25T20:30:28.435Z,100759.19
2022-08-25T20:34:30.685Z,100759.34
2022-08-25T20:38:35.279Z,100754.47
2022-08-25T20:42:40.535Z,100751.94
2022-08-25T20:46:43.105Z,100748.31
2022-08-25T20:50:45.824Z,100762.41
2022-08-25T20:55:00.100Z,100761.34
2022-08-25T20:59:04.198Z,100745.81
2022-08-25T21:03:12.951Z,100743.75
2022-08-25T21:07:15.035Z,100743.59
2022-08-25T21:11:22.848Z,100731.28
2022-08-25T21:15:25.415Z,100739.91
2022-08-25T21:19:30.063Z,100729.53
2022-08-25T21:23:32.610Z,100718.75
2022-08-25T21:27:34.917Z,100711.31
2022-08-25T21:31:37.087Z,100705.84
2022-08-25T21:35:42.885Z,100706.56
2022-08-25T21:39:45.025Z,100708.25
2022-08-25T21:43:47.970Z,100715.97
2022-08-25T21:47:50.233Z,100702.94
2022-08-25T21:52:00.401Z,100699.66
2022-08-25T21:56:06.838Z,100710.06
2022-08-25T22:00:09.715Z,100709.50
2022-08-25T22:04:14.675Z,100695.19
2022-08-25T22:08:17.621Z,100697.16
2022-08-25T22:12:21.885Z,100692.81
2022-08-25T22:16:24.967Z,100696.47
2022-08-25T22:20:27.125Z,100699.22
2022-08-25T22:24:31.287Z,100678.81
2022-08-25T22:28:33.321Z,100674.59
2022-08-25T22:32:35.757Z,100669.13
2022-08-25T22:36:39.162Z,100651.47
2022-08-25T22:40:41.972Z,100640.53
2022-08-25T22:44:44.207Z,100636.06
2022-08-25T22:48:46.633Z,100642.50
2022-08-25T22:52:52.722Z,100625.41
2022-08-25T22:56:54.983Z,100609.44
2022-08-25T23:00:57.834Z,100615.44
2022-08-25T23:05:02.075Z,100610.91
2022-08-25T23:09:07.455Z,100608.94
2022-08-25T23:13:09.735Z,100605.84
2022-08-25T23:17:17.527Z,100612.66
2022-08-25T23:21:41.321Z,100601.44
2022-08-25T23:25:44.650Z,100600.19
2022-08-25T23:29:49.061Z,100589.53
2022-08-25T23:33:51.625Z,100595.63
2022-08-25T23:37:53.946Z,100596.00
2022-08-25T23:42:01.986Z,100579.91
2022-08-25T23:46:10.535Z,100590.91
2022-08-25T23:50:14.733Z,100578.00
2022-08-25T23:54:19.605Z,100582.81
2022-08-25T23:58:22.232Z,100574.25
